Portada
METAR-TAF:

METAR-TAF

Aeroports :

Crestview, Florida, Estats Units d'Amèrica

latitud: 30-46-20N, longitud: 086-31-12W, altitud: 65 m

Observació

L'informe es va fer fa 1 hora i 12 minuts, a les 15:53 UTC
Vent 3 kt amb direcció variable
Temperatura 31°C
Humitat 66%
Pressió 1018 hPa
Visibilitat: 16.1 km
Escasses núvols a una alçada de 2500 ft

METAR: KCEW 181553Z AUTO VRB03KT 10SM FEW025 31/24 A3007 RMK AO2 SLP180 T03060239

Hora: 12:05 (17:05 UTC)


TAF: manca

Observacions i pronòstics meteorològics de més de 4000 aeroports (METAR i TAF).

Les estacions disponibles són els punts grocs i vermells al mapa.

Posi el ratolí al punt desitjat per veure el nom de l'estació.

Feu clic per veure les observacions i els pronòstics meteorològics.

Per canviar el mapa: feu clic els botons verds amb una creu de color negre per apropar; al botó verd amb un guió per allunyar la imatge; o en les fletxes verdes per a mapes adjacents.


METAR-TAF: